Time;durP1;ratioP1;P1;durP2;ratioP2;P2;SDS_P1;SDS_P2;PMS_P1;PMS_P2;Temp;Humidity;BMP_temperature;BMP_pressure;BME280_temperature;BME280_humidity;BME280_pressure;Samples;Min_cycle;Max_cycle;Signal;HPM_P1;HPM_P2
2023/12/28 00:01:28;;;;;;;9.43;5.05;;;;;;;5.22;100.00;100295.63;4924534;29;20544;-42
2023/12/28 00:03:53;;;;;;;7.88;4.97;;;;;;;5.18;100.00;100309.91;4928266;29;20195;-40
2023/12/28 00:06:19;;;;;;;8.40;4.75;;;;;;;5.16;100.00;100321.44;4925623;29;20191;-42
2023/12/28 00:08:44;;;;;;;6.70;5.25;;;;;;;5.16;100.00;100294.03;4927066;29;20658;-42
2023/12/28 00:11:09;;;;;;;8.50;5.30;;;;;;;5.14;100.00;100312.63;4925863;29;20636;-42
2023/12/28 00:13:35;;;;;;;9.20;5.72;;;;;;;5.13;100.00;100323.28;4923098;29;20306;-42
2023/12/28 00:16:01;;;;;;;10.02;5.57;;;;;;;5.12;100.00;100308.28;4927328;29;20294;-41
2023/12/28 00:18:26;;;;;;;12.27;6.15;;;;;;;5.11;100.00;100314.47;4912128;29;20188;-41
2023/12/28 00:20:52;;;;;;;7.95;6.20;;;;;;;5.12;100.00;100295.00;4926943;29;20175;-38
2023/12/28 00:23:20;;;;;;;9.00;5.85;;;;;;;5.15;100.00;100295.78;4921019;29;20686;-41
2023/12/28 00:25:45;;;;;;;8.65;5.55;;;;;;;5.13;100.00;100302.91;4929131;29;20199;-41
2023/12/28 00:28:11;;;;;;;9.00;6.10;;;;;;;5.15;100.00;100305.53;4921948;29;20176;-40
2023/12/28 00:30:36;;;;;;;7.35;5.60;;;;;;;5.22;100.00;100306.25;4923425;29;20630;-44
2023/12/28 00:33:02;;;;;;;6.55;5.30;;;;;;;5.19;100.00;100295.72;4913224;29;20339;-39
2023/12/28 00:35:27;;;;;;;11.55;5.50;;;;;;;5.19;100.00;100299.25;4925053;29;20568;-39
2023/12/28 00:37:53;;;;;;;7.50;5.60;;;;;;;5.19;100.00;100295.72;4904032;29;20218;-37
2023/12/28 00:40:19;;;;;;;8.68;5.90;;;;;;;5.20;100.00;100311.59;4908504;29;20215;-39
2023/12/28 00:42:45;;;;;;;7.93;5.15;;;;;;;5.21;100.00;100316.00;4926093;29;20212;-45
2023/12/28 00:45:10;;;;;;;6.70;5.10;;;;;;;5.27;100.00;100309.66;4925389;29;20633;-41
2023/12/28 00:47:36;;;;;;;7.45;5.60;;;;;;;5.28;100.00;100311.44;4926077;29;20291;-40
2023/12/28 00:50:02;;;;;;;9.55;5.13;;;;;;;5.27;100.00;100299.03;4924748;29;20291;-39
2023/12/28 00:52:27;;;;;;;9.68;5.85;;;;;;;5.32;100.00;100303.34;4923555;29;20211;-41
2023/12/28 00:54:53;;;;;;;7.25;4.82;;;;;;;5.40;100.00;100308.47;4910964;29;20702;-41
2023/12/28 00:57:18;;;;;;;11.23;5.78;;;;;;;5.41;100.00;100312.00;4926202;29;20704;-43
2023/12/28 00:59:44;;;;;;;7.95;5.65;;;;;;;5.43;100.00;100304.84;4926372;29;20215;-42
2023/12/28 01:02:09;;;;;;;10.23;5.63;;;;;;;5.48;100.00;100308.25;4926434;29;20200;-41
2023/12/28 01:04:35;;;;;;;6.68;5.28;;;;;;;5.50;100.00;100291.38;4927515;29;20195;-41
2023/12/28 01:07:04;;;;;;;7.40;5.65;;;;;;;5.55;100.00;100293.91;4926997;29;20187;-42
2023/12/28 01:09:32;;;;;;;10.63;5.53;;;;;;;5.60;100.00;100304.41;4911380;29;20182;-42
2023/12/28 01:11:58;;;;;;;6.55;5.57;;;;;;;5.62;100.00;100292.84;4923469;29;20297;-42
2023/12/28 01:14:23;;;;;;;9.52;5.50;;;;;;;5.65;100.00;100306.03;4926172;29;20258;-40
2023/12/28 01:16:49;;;;;;;8.70;5.88;;;;;;;5.72;100.00;100296.13;4924020;29;20619;-44
2023/12/28 01:19:15;;;;;;;9.13;5.78;;;;;;;5.75;100.00;100298.69;4896685;29;20621;-41
2023/12/28 01:21:40;;;;;;;10.23;6.13;;;;;;;5.83;100.00;100309.13;4926258;29;20188;-40
2023/12/28 01:24:06;;;;;;;8.38;5.82;;;;;;;5.85;100.00;100297.53;4924083;29;20290;-44
2023/12/28 01:26:31;;;;;;;10.20;6.85;;;;;;;5.94;100.00;100307.03;4911582;29;20562;-41
2023/12/28 01:28:57;;;;;;;8.40;7.00;;;;;;;5.93;100.00;100311.47;4924408;29;20246;-41
2023/12/28 01:31:22;;;;;;;10.80;6.85;;;;;;;6.05;100.00;100312.94;4923708;29;20188;-41
2023/12/28 01:33:48;;;;;;;8.25;7.20;;;;;;;6.11;100.00;100314.59;4911373;29;20290;-42
2023/12/28 01:36:18;;;;;;;8.00;6.60;;;;;;;6.13;100.00;100310.09;4925313;29;20229;-40
2023/12/28 01:38:44;;;;;;;7.50;6.70;;;;;;;6.15;100.00;100319.78;4922640;29;20203;-40
2023/12/28 01:41:10;;;;;;;7.43;6.63;;;;;;;6.14;100.00;100320.69;4907186;29;20262;-42
2023/12/28 01:43:35;;;;;;;7.00;6.30;;;;;;;6.16;100.00;100313.50;4924852;29;20199;-43
2023/12/28 01:46:02;;;;;;;11.05;6.63;;;;;;;6.14;100.00;100306.50;4926488;29;20281;-41
2023/12/28 01:48:28;;;;;;;7.85;6.28;;;;;;;6.20;100.00;100324.94;4926432;29;20229;-43
2023/12/28 01:50:55;;;;;;;8.75;6.15;;;;;;;6.24;100.00;100321.28;4909436;29;20183;-42
2023/12/28 01:53:20;;;;;;;6.43;5.82;;;;;;;6.29;100.00;100298.09;4924863;29;20593;-41
2023/12/28 01:55:46;;;;;;;9.98;6.60;;;;;;;6.27;100.00;100323.84;4924565;29;20179;-41
2023/12/28 01:58:12;;;;;;;6.28;5.60;;;;;;;6.29;100.00;100329.16;4921704;29;20622;-42
2023/12/28 02:00:38;;;;;;;9.00;6.47;;;;;;;6.33;100.00;100309.50;4908840;29;20510;-44
2023/12/28 02:03:07;;;;;;;8.38;5.60;;;;;;;6.39;100.00;100317.31;4911781;29;20207;-42
2023/12/28 02:05:33;;;;;;;9.10;5.72;;;;;;;6.44;100.00;100320.72;4908383;29;20300;-42
2023/12/28 02:07:58;;;;;;;8.85;5.63;;;;;;;6.41;100.00;100326.13;4925376;29;20199;-42
2023/12/28 02:10:24;;;;;;;10.43;5.68;;;;;;;6.43;100.00;100311.00;4907397;29;20187;-41
2023/12/28 02:12:50;;;;;;;5.45;4.88;;;;;;;6.45;100.00;100322.47;4924391;29;20286;-42
2023/12/28 02:15:16;;;;;;;12.50;6.40;;;;;;;6.44;100.00;100326.03;4910089;29;20187;-41
2023/12/28 02:17:41;;;;;;;7.38;5.35;;;;;;;6.47;100.00;100312.66;4916954;29;20654;-41
2023/12/28 02:20:08;;;;;;;6.50;5.75;;;;;;;6.56;100.00;100315.03;4928118;29;20195;-42
2023/12/28 02:22:34;;;;;;;7.78;5.88;;;;;;;6.50;100.00;100323.19;4924737;29;20212;-42
2023/12/28 02:25:13;;;;;;;8.48;5.40;;;;;;;6.56;100.00;100306.19;4925666;29;20206;-42
2023/12/28 02:27:44;;;;;;;9.57;5.63;;;;;;;6.48;100.00;100306.41;4914152;29;20265;-43
2023/12/28 02:30:10;;;;;;;8.95;5.22;;;;;;;6.44;100.00;100298.56;4904039;29;20218;-43
2023/12/28 02:32:54;;;;;;;10.07;5.63;;;;;;;6.48;100.00;100311.72;4925645;29;20781;-41
2023/12/28 02:35:31;;;;;;;8.60;5.28;;;;;;;6.40;100.00;100303.94;4923083;29;20613;-42
2023/12/28 02:38:01;;;;;;;6.40;5.03;;;;;;;6.35;100.00;100321.00;4929370;29;20206;-45
2023/12/28 02:40:28;;;;;;;7.68;5.15;;;;;;;6.40;100.00;100330.56;4927210;29;20263;-43
2023/12/28 02:42:54;;;;;;;7.00;5.30;;;;;;;6.47;100.00;100328.63;4926385;29;20207;-42
2023/12/28 02:45:20;;;;;;;7.93;5.95;;;;;;;6.48;100.00;100327.69;4927723;29;20194;-43
2023/12/28 02:47:45;;;;;;;6.57;5.53;;;;;;;6.55;100.00;100320.41;4925918;29;20620;-41
2023/12/28 02:50:11;;;;;;;11.20;5.78;;;;;;;6.53;100.00;100332.88;4914225;29;20260;-41
2023/12/28 02:52:36;;;;;;;7.22;5.03;;;;;;;6.60;100.00;100321.13;4926673;29;20328;-41
2023/12/28 02:55:02;;;;;;;6.15;4.47;;;;;;;6.62;100.00;100326.41;4912360;29;20207;-43
2023/12/28 02:57:28;;;;;;;5.80;4.63;;;;;;;6.56;100.00;100311.50;4929557;29;20192;-43
2023/12/28 02:59:53;;;;;;;5.78;5.20;;;;;;;6.59;100.00;100327.38;4926164;29;20273;-41
2023/12/28 03:02:19;;;;;;;5.38;4.45;;;;;;;6.64;100.00;100324.56;4910093;29;20196;-41
2023/12/28 03:04:46;;;;;;;7.90;5.05;;;;;;;6.66;100.00;100326.25;4927146;29;20203;-43
2023/12/28 03:07:12;;;;;;;8.43;5.32;;;;;;;6.66;100.00;100326.25;4927310;29;20276;-41
2023/12/28 03:09:39;;;;;;;5.15;4.35;;;;;;;6.67;100.00;100321.81;4926965;29;20208;-42
2023/12/28 03:12:05;;;;;;;5.30;4.30;;;;;;;6.65;100.00;100331.63;4914341;29;20198;-44
2023/12/28 03:14:31;;;;;;;5.57;5.00;;;;;;;6.70;100.00;100322.59;4924112;29;20345;-43
2023/12/28 03:16:56;;;;;;;7.70;4.97;;;;;;;6.79;100.00;100324.09;4924450;29;20234;-39
2023/12/28 03:19:22;;;;;;;8.32;4.93;;;;;;;6.84;100.00;100322.16;4926940;29;20564;-41
2023/12/28 03:21:47;;;;;;;7.57;4.35;;;;;;;6.85;100.00;100323.06;4921831;29;20201;-39
2023/12/28 03:24:13;;;;;;;6.80;4.43;;;;;;;6.73;100.00;100335.81;4920319;29;20278;-42
2023/12/28 03:26:39;;;;;;;8.07;4.78;;;;;;;6.72;100.00;100312.78;4912852;29;20179;-41
2023/12/28 03:29:06;;;;;;;5.15;4.22;;;;;;;6.68;100.00;100313.78;4917818;29;20693;-41
2023/12/28 03:31:31;;;;;;;8.18;4.25;;;;;;;6.67;100.00;100316.47;4909313;29;20626;-42
2023/12/28 03:33:57;;;;;;;9.65;4.65;;;;;;;6.61;100.00;100322.88;4914059;29;20281;-42
2023/12/28 03:36:23;;;;;;;5.03;3.85;;;;;;;6.73;100.00;100314.50;4912755;29;20302;-40
2023/12/28 03:38:48;;;;;;;8.88;4.00;;;;;;;6.66;100.00;100317.41;4922198;29;20203;-39
2023/12/28 03:41:20;;;;;;;11.13;4.60;;;;;;;6.68;100.00;100327.09;4925681;29;20246;-41
2023/12/28 03:43:47;;;;;;;7.68;4.88;;;;;;;6.68;100.00;100328.91;4904399;29;20199;-41
2023/12/28 03:46:12;;;;;;;10.90;4.20;;;;;;;6.64;100.00;100322.78;4913508;29;20689;-38
2023/12/28 03:48:38;;;;;;;8.70;3.97;;;;;;;6.62;100.00;100326.41;4926684;29;20244;-39
2023/12/28 03:51:06;;;;;;;6.30;4.13;;;;;;;6.65;100.00;100329.84;4927336;29;20314;-40
2023/12/28 03:53:32;;;;;;;8.55;4.00;;;;;;;6.63;100.00;100326.38;4923578;29;20686;-40
2023/12/28 03:56:00;;;;;;;6.57;3.72;;;;;;;6.72;100.00;100327.88;4912922;29;20202;-44
2023/12/28 03:58:26;;;;;;;7.20;4.43;;;;;;;6.73;100.00;100324.28;4923770;29;20467;-40
2023/12/28 04:00:52;;;;;;;7.00;3.70;;;;;;;6.73;100.00;100321.63;4915422;29;20563;-40
2023/12/28 04:03:18;;;;;;;5.30;3.70;;;;;;;6.78;100.00;100317.91;4926358;29;20203;-42
2023/12/28 04:05:44;;;;;;;7.20;4.35;;;;;;;6.84;100.00;100330.16;4909397;29;20183;-43
2023/12/28 04:08:10;;;;;;;4.15;3.35;;;;;;;6.86;100.00;100324.78;4924291;29;20659;-41
2023/12/28 04:10:37;;;;;;;8.07;4.70;;;;;;;6.87;100.00;100326.53;4907789;29;20226;-42
2023/12/28 04:13:03;;;;;;;8.77;3.65;;;;;;;6.88;100.00;100314.97;4908226;29;20258;-43
2023/12/28 04:15:29;;;;;;;10.75;3.88;;;;;;;6.81;100.00;100325.78;4924115;29;20187;-45
2023/12/28 04:17:57;;;;;;;6.30;3.85;;;;;;;6.83;100.00;100324.91;4926309;29;20270;-44
2023/12/28 04:20:22;;;;;;;5.53;3.47;;;;;;;6.84;100.00;100316.84;4908961;29;20222;-44
2023/12/28 04:22:48;;;;;;;4.55;3.38;;;;;;;6.82;100.00;100329.31;4928040;29;20222;-44
2023/12/28 04:25:16;;;;;;;10.43;4.15;;;;;;;6.73;100.00;100319.81;4924175;29;20243;-43
2023/12/28 04:27:42;;;;;;;4.13;3.38;;;;;;;6.73;100.00;100319.81;4905323;29;20749;-45
2023/12/28 04:30:11;;;;;;;5.03;3.63;;;;;;;6.67;100.00;100320.03;4920676;29;20255;-45
2023/12/28 04:32:37;;;;;;;5.50;3.25;;;;;;;6.67;100.00;100320.03;4923693;29;20203;-43
2023/12/28 04:35:03;;;;;;;5.82;3.53;;;;;;;6.67;100.00;100309.41;4914676;29;20297;-44
2023/12/28 04:37:30;;;;;;;5.80;3.45;;;;;;;6.56;100.00;100307.06;4912450;29;20298;-45
2023/12/28 04:39:56;;;;;;;5.97;3.38;;;;;;;6.55;100.00;100302.63;4921581;29;20190;-44
2023/12/28 04:42:22;;;;;;;7.82;3.25;;;;;;;6.53;100.00;100323.09;4910307;29;20228;-43
2023/12/28 04:44:48;;;;;;;6.22;3.33;;;;;;;6.51;100.00;100300.97;4907470;29;20276;-45
2023/12/28 04:47:13;;;;;;;8.50;3.60;;;;;;;6.50;100.00;100301.91;4923477;29;20302;-45
2023/12/28 04:49:39;;;;;;;13.52;3.60;;;;;;;6.46;100.00;100296.72;4925011;29;20172;-46
2023/12/28 04:52:05;;;;;;;5.72;3.10;;;;;;;6.42;100.00;100306.56;4908382;29;20211;-43
2023/12/28 04:54:32;;;;;;;7.82;3.42;;;;;;;6.48;100.00;100303.75;4902805;29;20308;-42
2023/12/28 04:56:58;;;;;;;5.78;3.30;;;;;;;6.42;100.00;100301.25;4907092;29;20192;-44
2023/12/28 04:59:24;;;;;;;4.97;3.30;;;;;;;6.43;100.00;100305.69;4921231;29;20251;-44
2023/12/28 05:01:49;;;;;;;6.45;3.72;;;;;;;6.43;100.00;100308.34;4908899;29;20186;-44
2023/12/28 05:04:15;;;;;;;5.25;3.40;;;;;;;6.42;100.00;100306.56;4911265;29;20203;-44
2023/12/28 05:06:42;;;;;;;5.40;3.30;;;;;;;6.45;100.00;100308.28;4909305;29;20186;-45
2023/12/28 05:09:07;;;;;;;10.43;3.40;;;;;;;6.43;100.00;100310.09;4907257;29;20187;-44
2023/12/28 05:11:33;;;;;;;6.57;3.20;;;;;;;6.44;100.00;100311.88;4958943;23;20270;-42
2023/12/28 05:13:58;;;;;;;4.53;2.83;;;;;;;6.40;100.00;100301.28;4944106;28;20221;-45
2023/12/28 05:16:24;;;;;;;8.43;3.28;;;;;;;6.45;100.00;100306.50;4956854;28;20195;-42
2023/12/28 05:18:49;;;;;;;6.72;3.55;;;;;;;6.37;100.00;100295.22;4957735;28;20235;-43
2023/12/28 05:21:14;;;;;;;7.05;3.25;;;;;;;6.42;100.00;100298.59;4958942;28;20534;-44
2023/12/28 05:23:40;;;;;;;8.73;3.80;;;;;;;6.37;100.00;100292.56;4954930;28;20304;-42
2023/12/28 05:26:06;;;;;;;8.05;3.80;;;;;;;6.33;100.00;100290.91;4959110;28;20325;-42
2023/12/28 05:28:32;;;;;;;7.95;3.78;;;;;;;6.37;100.00;100300.53;4959286;28;20273;-43
2023/12/28 05:31:01;;;;;;;6.10;3.25;;;;;;;6.36;100.00;100305.00;4955124;28;20182;-44
2023/12/28 05:33:27;;;;;;;7.53;3.95;;;;;;;6.32;100.00;100281.16;4956794;28;20305;-44
2023/12/28 05:35:52;;;;;;;6.57;4.05;;;;;;;6.29;100.00;100290.09;4960695;28;20217;-43
2023/12/28 05:38:18;;;;;;;6.32;3.22;;;;;;;6.27;100.00;100299.91;4958922;28;20322;-43
2023/12/28 05:40:47;;;;;;;5.00;2.95;;;;;;;6.30;100.00;100293.66;4959161;28;20645;-43
2023/12/28 05:43:12;;;;;;;8.13;3.53;;;;;;;6.28;100.00;100293.69;4954949;28;20194;-42
2023/12/28 05:45:38;;;;;;;9.98;3.42;;;;;;;6.31;100.00;100298.03;4957482;28;20185;-43
2023/12/28 05:48:03;;;;;;;11.13;3.78;;;;;;;6.34;100.00;100297.94;4958312;28;20181;-43
2023/12/28 05:50:29;;;;;;;8.68;3.38;;;;;;;6.37;100.00;100297.88;4957467;28;20240;-44
2023/12/28 05:52:55;;;;;;;6.93;3.72;;;;;;;6.40;100.00;100293.31;4954709;28;20602;-43
2023/12/28 05:55:20;;;;;;;9.13;3.83;;;;;;;6.43;100.00;100279.06;4956108;28;20193;-42
2023/12/28 05:57:47;;;;;;;7.35;3.88;;;;;;;6.48;100.00;100285.13;4960698;28;20189;-44
2023/12/28 06:00:14;;;;;;;12.88;3.22;;;;;;;6.49;100.00;100284.19;4957562;28;20547;-44
2023/12/28 06:02:41;;;;;;;11.15;3.63;;;;;;;6.54;100.00;100278.75;4953502;28;20221;-43
2023/12/28 06:05:07;;;;;;;6.70;3.13;;;;;;;6.62;100.00;100271.38;4958536;28;20257;-42
2023/12/28 06:07:32;;;;;;;7.57;3.80;;;;;;;6.60;100.00;100268.78;4959944;28;20321;-44
2023/12/28 06:09:57;;;;;;;9.85;3.72;;;;;;;6.72;100.00;100270.19;4949906;28;20186;-44
2023/12/28 06:12:23;;;;;;;9.73;3.35;;;;;;;6.72;100.00;100270.19;4960826;28;20202;-42
2023/12/28 06:14:48;;;;;;;6.60;2.90;;;;;;;6.69;100.00;100262.31;4962238;28;20216;-43
2023/12/28 06:17:18;;;;;;;8.45;3.50;;;;;;;6.72;100.00;100272.84;4964488;28;20190;-42
2023/12/28 06:19:43;;;;;;;7.53;3.20;;;;;;;6.78;100.00;100263.81;4963516;28;20191;-43
2023/12/28 06:22:09;;;;;;;9.02;3.40;;;;;;;6.79;100.00;100258.41;4958581;28;20201;-43
2023/12/28 06:24:38;;;;;;;8.98;3.85;;;;;;;6.78;100.00;100254.03;4958729;28;20182;-43
2023/12/28 06:27:03;;;;;;;8.30;3.30;;;;;;;6.75;100.00;100251.44;4962484;28;20197;-41
2023/12/28 06:29:29;;;;;;;5.28;3.10;;;;;;;6.70;100.00;100249.84;4960575;28;20186;-44
2023/12/28 06:31:54;;;;;;;5.40;3.22;;;;;;;6.75;100.00;100254.09;4957345;28;20221;-44
2023/12/28 06:34:20;;;;;;;7.70;3.38;;;;;;;6.70;100.00;100253.38;4961488;28;20218;-44
2023/12/28 06:36:45;;;;;;;7.78;3.35;;;;;;;6.74;100.00;100252.38;4965897;28;20240;-42
2023/12/28 06:39:11;;;;;;;7.00;2.83;;;;;;;6.78;100.00;100243.38;4960160;28;20177;-42
2023/12/28 06:41:36;;;;;;;6.75;2.90;;;;;;;6.85;100.00;100243.19;4957425;28;20298;-44
2023/12/28 06:44:02;;;;;;;7.03;3.63;;;;;;;6.91;100.00;100233.19;4955978;28;20604;-42
2023/12/28 06:46:27;;;;;;;6.80;2.95;;;;;;;6.89;100.00;100245.69;4963684;28;20178;-43
2023/12/28 06:48:52;;;;;;;7.85;3.40;;;;;;;6.90;100.00;100246.56;4961951;28;20233;-41
2023/12/28 06:51:19;;;;;;;6.80;3.80;;;;;;;6.98;100.00;100223.22;4946952;28;20178;-44
2023/12/28 06:53:46;;;;;;;13.35;3.65;;;;;;;7.01;100.00;100234.63;4955022;28;20721;-43
2023/12/28 06:56:11;;;;;;;7.28;2.70;;;;;;;7.08;100.00;100226.41;4955386;28;20183;-43
2023/12/28 06:58:36;;;;;;;8.98;3.15;;;;;;;7.12;100.00;100238.72;4961898;28;20194;-43
2023/12/28 07:01:05;;;;;;;11.27;3.13;;;;;;;7.08;100.00;100221.09;4957474;28;20201;-44
2023/12/28 07:03:32;;;;;;;7.32;2.75;;;;;;;7.17;100.00;100236.75;4939232;28;20190;-43
2023/12/28 07:06:02;;;;;;;8.73;3.20;;;;;;;7.17;100.00;100197.69;4959213;28;20178;-43
2023/12/28 07:08:28;;;;;;;5.75;2.60;;;;;;;7.15;100.00;100191.56;4959593;28;20211;-43
2023/12/28 07:10:54;;;;;;;7.68;3.20;;;;;;;7.15;100.00;100214.63;4957365;28;20187;-44
2023/12/28 07:13:19;;;;;;;5.88;2.90;;;;;;;7.19;100.00;100226.94;4957152;28;20254;-42
2023/12/28 07:15:45;;;;;;;7.32;2.92;;;;;;;7.20;100.00;100215.38;4957480;28;20182;-42
2023/12/28 07:18:11;;;;;;;6.68;2.83;;;;;;;7.28;100.00;100213.31;4960280;28;20183;-43
2023/12/28 07:20:36;;;;;;;6.93;2.95;;;;;;;7.35;100.00;100211.31;4957462;28;20205;-42
2023/12/28 07:23:03;;;;;;;7.25;2.70;;;;;;;7.35;100.00;100195.31;4953475;28;20202;-43
2023/12/28 07:25:28;;;;;;;9.50;3.05;;;;;;;7.40;100.00;100249.31;4958289;28;20215;-43
2023/12/28 07:27:54;;;;;;;5.80;2.75;;;;;;;7.50;100.00;100224.09;4961361;28;20339;-42
2023/12/28 07:30:19;;;;;;;9.65;2.60;;;;;;;7.46;100.00;100227.78;4961085;28;20175;-42
2023/12/28 07:32:45;;;;;;;9.63;2.58;;;;;;;7.47;100.00;100226.84;4961986;28;20206;-43
2023/12/28 07:35:11;;;;;;;7.00;2.90;;;;;;;7.49;100.00;100219.66;4960699;28;20202;-43
2023/12/28 07:37:36;;;;;;;7.00;2.75;;;;;;;7.54;100.00;100230.16;4940236;28;20187;-43
2023/12/28 07:40:03;;;;;;;7.35;2.60;;;;;;;7.58;100.00;100195.34;4957120;28;20657;-42
2023/12/28 07:42:29;;;;;;;6.00;2.83;;;;;;;7.67;100.00;100201.28;4952340;28;20326;-42
2023/12/28 07:44:54;;;;;;;5.93;2.70;;;;;;;7.64;100.00;100210.25;4952403;28;20276;-43
2023/12/28 07:47:20;;;;;;;7.78;2.63;;;;;;;7.67;100.00;100210.13;4959311;28;20561;-42
2023/12/28 07:49:45;;;;;;;7.50;3.28;;;;;;;7.71;100.00;100203.78;4956379;28;20183;-43
2023/12/28 07:52:11;;;;;;;6.95;3.05;;;;;;;7.79;100.00;100182.16;4946315;28;20182;-43
2023/12/28 07:54:36;;;;;;;7.75;2.83;;;;;;;7.82;100.00;100196.25;4960838;28;20269;-44
2023/12/28 07:57:02;;;;;;;9.95;3.38;;;;;;;7.81;100.00;100190.97;4954801;28;20174;-44
2023/12/28 07:59:27;;;;;;;13.18;3.42;;;;;;;7.83;100.00;100184.66;4956890;28;20217;-43
2023/12/28 08:01:53;;;;;;;7.18;2.70;;;;;;;7.87;100.00;100189.88;4956686;28;20573;-42
2023/12/28 08:04:18;;;;;;;7.95;2.30;;;;;;;7.81;100.00;100178.50;4955232;28;20632;-42
2023/12/28 08:06:44;;;;;;;12.90;3.08;;;;;;;7.87;100.00;100190.75;4953395;28;20198;-44
2023/12/28 08:09:10;;;;;;;5.82;2.20;;;;;;;7.87;100.00;100185.44;4954332;28;20189;-43
2023/12/28 08:11:35;;;;;;;8.07;2.80;;;;;;;7.81;100.00;100178.50;4955761;28;20187;-43
2023/12/28 08:14:01;;;;;;;11.75;2.80;;;;;;;7.82;100.00;100172.25;4951317;28;20309;-42
2023/12/28 08:16:27;;;;;;;6.43;2.53;;;;;;;7.80;100.00;100179.41;4955093;28;20337;-43
2023/12/28 08:18:52;;;;;;;7.07;3.35;;;;;;;7.81;100.00;100167.84;4953693;28;20556;-44
2023/12/28 08:21:18;;;;;;;11.13;2.70;;;;;;;7.74;100.00;100163.69;4954467;28;20183;-43
2023/12/28 08:23:44;;;;;;;7.45;3.08;;;;;;;7.76;100.00;100171.59;4953380;28;20221;-44
2023/12/28 08:26:10;;;;;;;9.40;3.10;;;;;;;7.78;100.00;100138.66;4952080;28;20182;-43
2023/12/28 08:28:36;;;;;;;6.55;2.70;;;;;;;7.81;100.00;100149.19;4957267;28;20186;-43
2023/12/28 08:31:02;;;;;;;9.90;2.60;;;;;;;7.83;100.00;100175.81;4957360;28;20645;-43
2023/12/28 08:33:27;;;;;;;6.63;2.35;;;;;;;7.81;100.00;100174.97;4952880;28;20309;-43
2023/12/28 08:35:53;;;;;;;5.30;2.58;;;;;;;7.78;100.00;100173.31;4955589;28;20645;-42
2023/12/28 08:38:19;;;;;;;7.57;2.88;;;;;;;7.77;100.00;100192.88;4955043;28;20174;-43
2023/12/28 08:40:44;;;;;;;8.88;2.88;;;;;;;7.77;100.00;100170.69;4955241;28;20594;-44
2023/12/28 08:43:10;;;;;;;13.80;3.30;;;;;;;7.72;100.00;100175.31;4953764;28;20217;-43
2023/12/28 08:45:36;;;;;;;7.15;2.75;;;;;;;7.71;100.00;100181.56;4961513;28;20174;-43
2023/12/28 08:48:02;;;;;;;8.38;2.67;;;;;;;7.75;100.00;100194.72;4955936;28;20226;-44
2023/12/28 08:50:28;;;;;;;13.18;3.08;;;;;;;7.83;100.00;100189.13;4957838;28;20214;-45
2023/12/28 08:52:53;;;;;;;9.80;2.80;;;;;;;7.88;100.00;100172.97;4955615;28;20617;-44
2023/12/28 08:55:18;;;;;;;8.40;2.70;;;;;;;7.90;100.00;100184.44;4953155;28;20205;-43
2023/12/28 08:57:44;;;;;;;6.70;2.63;;;;;;;8.05;100.00;100165.19;4952596;28;20181;-44
2023/12/28 09:00:14;;;;;;;10.65;2.47;;;;;;;8.08;100.00;100181.06;4958000;28;20202;-45
2023/12/28 09:02:40;;;;;;;7.65;2.55;;;;;;;8.14;100.00;100180.84;4953671;28;20276;-43
2023/12/28 09:05:06;;;;;;;8.85;2.55;;;;;;;8.17;100.00;100180.69;4955198;28;20171;-42
2023/12/28 09:07:32;;;;;;;6.72;2.35;;;;;;;8.20;100.00;100183.25;4956960;28;20198;-43
2023/12/28 09:09:57;;;;;;;8.73;2.55;;;;;;;8.20;100.00;100196.59;4953110;28;20249;-44
2023/12/28 09:12:23;;;;;;;7.63;2.75;;;;;;;8.20;100.00;100177.94;4955507;28;20218;-44
2023/12/28 09:14:48;;;;;;;9.23;2.88;;;;;;;8.14;100.00;100172.81;4957202;28;20220;-44
2023/12/28 09:17:14;;;;;;;11.35;2.72;;;;;;;8.19;100.00;100180.66;4954731;28;20178;-44
2023/12/28 09:19:40;;;;;;;9.18;2.80;;;;;;;8.27;100.00;100170.56;4960412;28;20177;-44
2023/12/28 09:22:06;;;;;;;8.57;2.78;;;;;;;8.27;100.00;100172.34;4955244;28;20563;-43
2023/12/28 09:24:31;;;;;;;8.77;2.72;;;;;;;8.33;100.00;100181.00;4960158;28;20175;-44
2023/12/28 09:26:57;;;;;;;14.20;3.20;;;;;;;8.43;100.00;100168.16;4947167;28;20278;-45
2023/12/28 09:29:22;;;;;;;11.27;2.15;;;;;;;8.47;100.00;100160.91;4951043;28;20182;-43
2023/12/28 09:31:48;;;;;;;9.75;2.65;;;;;;;8.53;100.00;100182.03;4954715;28;20177;-44
2023/12/28 09:34:13;;;;;;;13.00;2.55;;;;;;;8.54;100.00;100171.28;4936589;28;20214;-45
2023/12/28 09:36:39;;;;;;;13.80;2.95;;;;;;;8.60;100.00;100155.00;4952592;28;21089;-44
2023/12/28 09:39:07;;;;;;;10.70;2.70;;;;;;;8.67;100.00;100152.94;4956648;28;20281;-44
2023/12/28 09:41:39;;;;;;;10.50;2.83;;;;;;;8.77;100.00;100150.78;4945848;28;20190;-43
2023/12/28 09:44:10;;;;;;;12.63;3.00;;;;;;;8.84;100.00;100157.59;4959375;28;20190;-43
2023/12/28 09:46:38;;;;;;;10.80;2.72;;;;;;;8.81;100.00;100141.69;4956547;28;20193;-43
2023/12/28 09:49:04;;;;;;;10.43;3.22;;;;;;;8.72;100.00;100139.41;4954788;28;20190;-43
2023/12/28 09:51:30;;;;;;;10.50;2.70;;;;;;;8.64;100.00;100143.28;4947882;28;20828;-43
2023/12/28 09:53:56;;;;;;;10.02;2.65;;;;;;;8.67;100.00;100147.59;4958345;28;20253;-42
2023/12/28 09:56:23;;;;;;;17.02;2.55;;;;;;;8.68;100.00;100144.03;4955873;28;20212;-44
2023/12/28 09:58:51;;;;;;;10.75;2.40;;;;;;;8.82;100.00;100154.13;4955011;28;20178;-43
2023/12/28 10:01:17;;;;;;;10.55;2.50;;;;;;;8.89;100.00;100141.38;4959408;28;20178;-43
2023/12/28 10:03:44;;;;;;;14.73;2.55;;;;;;;8.91;100.00;100158.22;4956673;28;20186;-43
2023/12/28 10:06:09;;;;;;;9.73;2.33;;;;;;;8.82;100.00;100144.31;4940812;28;20225;-44
2023/12/28 10:08:35;;;;;;;21.75;3.42;;;;;;;8.83;100.00;100143.38;4945509;28;20272;-43
2023/12/28 10:11:02;;;;;;;18.20;3.17;;;;;;;8.77;100.00;100148.13;4934311;28;20204;-43
2023/12/28 10:13:28;;;;;;;13.27;3.03;;;;;;;8.67;100.00;100150.28;4951186;28;20227;-43
2023/12/28 10:15:57;;;;;;;18.00;3.40;;;;;;;8.75;100.00;100148.16;4942680;28;20662;-44
2023/12/28 10:18:23;;;;;;;17.40;3.63;;;;;;;8.75;100.00;100155.31;4946318;28;20179;-44
2023/12/28 10:20:53;;;;;;;17.83;3.30;;;;;;;8.83;100.00;100174.53;4957619;28;20648;-43
2023/12/28 10:23:21;;;;;;;15.15;2.83;;;;;;;8.83;100.00;100163.88;4959645;28;20194;-43
2023/12/28 10:25:49;;;;;;;14.13;3.10;;;;;;;8.77;100.00;100177.50;4957130;28;20222;-43
2023/12/28 10:28:18;;;;;;;15.75;3.00;;;;;;;8.96;100.00;100157.06;4955590;28;20182;-44
2023/12/28 10:30:44;;;;;;;21.00;3.20;;;;;;;9.01;100.00;100173.78;4948370;28;20644;-43
2023/12/28 10:33:09;;;;;;;11.07;2.78;;;;;;;9.13;100.00;100155.50;4956312;28;20210;-44
2023/12/28 10:35:35;;;;;;;13.55;2.67;;;;;;;9.11;100.00;100170.72;4958522;28;20190;-43
2023/12/28 10:38:03;;;;;;;16.92;3.22;;;;;;;9.13;100.00;100171.53;4957209;28;20187;-43
2023/12/28 10:40:31;;;;;;;16.38;3.00;;;;;;;9.29;100.00;100148.53;4953890;28;20201;-42
2023/12/28 10:43:01;;;;;;;13.57;3.08;;;;;;;9.28;100.00;100158.34;4959344;28;20206;-44
2023/12/28 10:45:31;;;;;;;13.35;3.42;;;;;;;9.25;100.00;100171.88;4961528;28;20190;-43
2023/12/28 10:48:07;;;;;;;15.77;3.60;;;;;;;9.26;100.00;100154.88;4954488;28;20552;-43
2023/12/28 10:50:39;;;;;;;10.63;3.25;;;;;;;9.25;100.00;100174.53;4958227;28;20178;-43
2023/12/28 10:53:32;;;;;;;18.48;3.63;;;;;;;9.32;100.00;100174.28;4959111;28;20213;-44
2023/12/28 10:56:10;;;;;;;17.33;4.07;;;;;;;9.22;100.00;100169.31;4956936;28;20233;-42
2023/12/28 10:58:50;;;;;;;14.30;3.40;;;;;;;9.31;100.00;100149.34;4959623;28;20273;-43
2023/12/28 11:01:31;;;;;;;15.82;3.75;;;;;;;9.19;100.00;100164.13;4952281;28;20294;-43
2023/12/28 11:04:10;;;;;;;16.50;3.35;;;;;;;9.23;100.00;100160.38;4959512;28;20195;-43
2023/12/28 11:06:37;;;;;;;11.70;3.30;;;;;;;9.20;100.00;100165.84;4961768;28;20235;-43
2023/12/28 11:09:05;;;;;;;21.20;3.30;;;;;;;9.25;100.00;100160.31;4960511;28;20277;-44
2023/12/28 11:11:32;;;;;;;14.98;3.25;;;;;;;9.23;100.00;100183.56;4981315;23;20273;-38
2023/12/28 11:14:00;;;;;;;17.40;3.10;;;;;;;9.18;100.00;100167.72;4986481;28;20732;-41
2023/12/28 11:16:27;;;;;;;14.63;3.10;;;;;;;8.97;100.00;100176.66;4989971;28;20217;-43
2023/12/28 11:18:54;;;;;;;17.08;3.33;;;;;;;8.92;100.00;100192.00;4985323;28;20268;-41